Aeroporto :
LOGIN :

Iscrizione | Disclaimer

   EN    FR    IT 

 










Sommario :    VFR   VFR Marginale   IFR   IFR Intensivo   IFR Molto Intensivo
Visibilità : 
Base nubi : 
>= 8 km
>= 3000ft
5 / 8 km
1000 / 3000 ft
1500m / 5 km
500 / 1000 ft
800 / 1500m
200 / 500 ft
< 800m
< 200 ft
Simboli :   Temporali  Nebbia  Neve Forte  Precipitazioni Forti  Vento > 20 kt
SIGMETs :   Varie  Temporali  Ghiacco  Turbolenza  Onda orograficha  Ceneri Vulcaniche






- Altitudine del aeroporto : 778 ft
- Codice IATA : BRQ


LKTB - Brno-Turany

ULTIMO METAR :
  • 170400Z 10005KT CAVOK 03/01 Q1019 NOSIG

METARs OBSOLETI :
  • 170330Z VRB06KT CAVOK 02/01 Q1019 NOSIG
  • 170300Z VRB03KT CAVOK 04/01 Q1019 NOSIG
  • 170230Z 23004KT CAVOK 04/01 Q1019 NOSIG
  • 170200Z 11005KT CAVOK 05/01 Q1019 NOSIG
  • 170130Z 12005KT CAVOK 04/01 Q1018 NOSIG

TAF TAF LKTB
Valido dal 17 a 00 ore il 18 a 06 ore UTC


162300Z 1700/1806 15009KT CAVOK
BECMG 1718/1720 9999 BKN036
TEMPO 1720/1806 7000 RA BKN020



MetMap, La meteo Aeronautica in un colpo d'occhio ! - Copyright ORBIFLY Dicembre 2007 - Disclaimer

ORBIFLY MET'MAP TEAM :

Programmazione e sviluppo : Alexandra Zaïnal
Concezione : Baudouin d'Aumeries
Aiuto per la programmazione : Marc-Olivier Méhu
Supporto tecnico e logistico : Manuel Goepfert
Aiuto per la traduzione : Arnaldo La Scala

Contatto : metmap@orbifly.com




FONTI E CREDITI :

   NOAA